sensor_id;sensor_type;location;lat;lon;timestamp;pressure;altitude;pressure_sealevel;temperature;humidity
47742;BME280;33504;52.066;6.096;2022-10-04T00:01:48;102309.72;;;15.43;47.05
47742;BME280;33504;52.066;6.096;2022-10-04T00:04:20;102307.45;;;15.20;47.07
47742;BME280;33504;52.066;6.096;2022-10-04T00:06:53;102302.04;;;15.40;47.07
47742;BME280;33504;52.066;6.096;2022-10-04T00:09:25;102296.70;;;15.39;47.15
47742;BME280;33504;52.066;6.096;2022-10-04T00:11:54;102296.02;;;15.38;47.25
47742;BME280;33504;52.066;6.096;2022-10-04T00:14:26;102293.00;;;14.83;47.37
47742;BME280;33504;52.066;6.096;2022-10-04T00:16:54;102290.53;;;15.10;47.28
47742;BME280;33504;52.066;6.096;2022-10-04T00:19:39;102289.38;;;15.31;47.38
47742;BME280;33504;52.066;6.096;2022-10-04T00:22:18;102286.92;;;15.06;47.47
47742;BME280;33504;52.066;6.096;2022-10-04T00:25:18;102283.40;;;16.24;47.46
47742;BME280;33504;52.066;6.096;2022-10-04T00:28:51;102277.60;;;15.91;47.54
47742;BME280;33504;52.066;6.096;2022-10-04T00:31:21;102277.27;;;15.14;47.79
47742;BME280;33504;52.066;6.096;2022-10-04T00:33:51;102274.15;;;15.19;47.70
47742;BME280;33504;52.066;6.096;2022-10-04T00:36:51;102266.48;;;15.65;47.96
47742;BME280;33504;52.066;6.096;2022-10-04T00:39:38;102259.47;;;15.16;47.95
47742;BME280;33504;52.066;6.096;2022-10-04T00:42:18;102253.10;;;14.97;47.88
47742;BME280;33504;52.066;6.096;2022-10-04T00:44:52;102250.95;;;15.25;47.93
47742;BME280;33504;52.066;6.096;2022-10-04T00:47:25;102255.59;;;15.29;47.78
47742;BME280;33504;52.066;6.096;2022-10-04T00:50:00;102259.50;;;15.30;47.77
47742;BME280;33504;52.066;6.096;2022-10-04T00:52:32;102257.20;;;15.09;47.81
47742;BME280;33504;52.066;6.096;2022-10-04T00:55:05;102251.07;;;15.30;47.72
47742;BME280;33504;52.066;6.096;2022-10-04T00:57:36;102250.21;;;15.32;47.65
47742;BME280;33504;52.066;6.096;2022-10-04T01:00:10;102247.47;;;15.34;47.66
47742;BME280;33504;52.066;6.096;2022-10-04T01:02:46;102242.44;;;15.11;47.68
47742;BME280;33504;52.066;6.096;2022-10-04T01:05:20;102237.74;;;15.32;47.78
47742;BME280;33504;52.066;6.096;2022-10-04T01:07:52;102236.74;;;14.85;47.75
47742;BME280;33504;52.066;6.096;2022-10-04T01:10:25;102230.66;;;15.31;47.77
47742;BME280;33504;52.066;6.096;2022-10-04T01:12:59;102219.81;;;15.25;47.94
47742;BME280;33504;52.066;6.096;2022-10-04T01:15:35;102216.26;;;14.99;48.11
47742;BME280;33504;52.066;6.096;2022-10-04T01:18:09;102214.15;;;15.23;48.18
47742;BME280;33504;52.066;6.096;2022-10-04T01:20:38;102212.89;;;15.18;48.32
47742;BME280;33504;52.066;6.096;2022-10-04T01:23:08;102205.04;;;15.05;48.72
47742;BME280;33504;52.066;6.096;2022-10-04T01:25:43;102206.58;;;15.14;48.67
47742;BME280;33504;52.066;6.096;2022-10-04T01:28:10;102210.28;;;15.28;48.72
47742;BME280;33504;52.066;6.096;2022-10-04T01:30:38;102206.13;;;15.13;48.59
47742;BME280;33504;52.066;6.096;2022-10-04T01:33:05;102200.13;;;15.05;48.64
47742;BME280;33504;52.066;6.096;2022-10-04T01:35:32;102206.83;;;14.87;49.09
47742;BME280;33504;52.066;6.096;2022-10-04T01:38:01;102212.11;;;15.08;48.72
47742;BME280;33504;52.066;6.096;2022-10-04T01:40:29;102213.40;;;15.13;48.64
47742;BME280;33504;52.066;6.096;2022-10-04T01:43:01;102212.54;;;15.19;48.52
47742;BME280;33504;52.066;6.096;2022-10-04T01:45:35;102212.05;;;15.25;48.38
47742;BME280;33504;52.066;6.096;2022-10-04T01:48:07;102211.21;;;15.04;48.27
47742;BME280;33504;52.066;6.096;2022-10-04T01:50:40;102207.92;;;15.27;48.37
47742;BME280;33504;52.066;6.096;2022-10-04T01:53:13;102202.59;;;15.27;48.26
47742;BME280;33504;52.066;6.096;2022-10-04T01:55:44;102202.15;;;15.24;48.24
47742;BME280;33504;52.066;6.096;2022-10-04T01:58:16;102198.43;;;15.25;48.25
47742;BME280;33504;52.066;6.096;2022-10-04T02:00:50;102192.36;;;15.02;48.48
47742;BME280;33504;52.066;6.096;2022-10-04T02:03:21;102186.34;;;14.93;48.58
47742;BME280;33504;52.066;6.096;2022-10-04T02:05:56;102182.43;;;14.91;48.63
47742;BME280;33504;52.066;6.096;2022-10-04T02:08:26;102167.91;;;14.55;49.26
47742;BME280;33504;52.066;6.096;2022-10-04T02:10:55;102160.01;;;14.89;48.98
47742;BME280;33504;52.066;6.096;2022-10-04T02:13:24;102159.99;;;14.70;48.87
47742;BME280;33504;52.066;6.096;2022-10-04T02:15:53;102162.43;;;14.88;49.06
47742;BME280;33504;52.066;6.096;2022-10-04T02:18:21;102163.75;;;14.93;48.92
47742;BME280;33504;52.066;6.096;2022-10-04T02:20:50;102164.11;;;14.93;48.96
47742;BME280;33504;52.066;6.096;2022-10-04T02:23:20;102168.04;;;14.72;49.01
47742;BME280;33504;52.066;6.096;2022-10-04T02:25:48;102167.91;;;14.78;48.85
47742;BME280;33504;52.066;6.096;2022-10-04T02:28:16;102165.18;;;14.58;49.19
47742;BME280;33504;52.066;6.096;2022-10-04T02:30:46;102160.30;;;15.00;48.73
47742;BME280;33504;52.066;6.096;2022-10-04T02:33:14;102154.97;;;14.68;48.80
47742;BME280;33504;52.066;6.096;2022-10-04T02:35:44;102147.38;;;14.54;49.07
47742;BME280;33504;52.066;6.096;2022-10-04T02:38:14;102143.81;;;14.44;49.34
47742;BME280;33504;52.066;6.096;2022-10-04T02:40:52;102138.36;;;14.70;49.30
47742;BME280;33504;52.066;6.096;2022-10-04T02:43:24;102134.11;;;14.74;49.19
47742;BME280;33504;52.066;6.096;2022-10-04T02:45:56;102137.40;;;14.54;49.13
47742;BME280;33504;52.066;6.096;2022-10-04T02:48:32;102132.25;;;14.58;48.93
47742;BME280;33504;52.066;6.096;2022-10-04T02:51:13;102125.12;;;14.70;49.22
47742;BME280;33504;52.066;6.096;2022-10-04T02:53:58;102117.11;;;14.46;49.04
47742;BME280;33504;52.066;6.096;2022-10-04T02:56:28;102115.19;;;14.69;48.92
47742;BME280;33504;52.066;6.096;2022-10-04T02:59:00;102109.45;;;14.50;48.76
47742;BME280;33504;52.066;6.096;2022-10-04T03:01:39;102106.64;;;14.71;48.79
47742;BME280;33504;52.066;6.096;2022-10-04T03:04:10;102111.73;;;14.69;48.74
47742;BME280;33504;52.066;6.096;2022-10-04T03:06:38;102111.14;;;14.45;48.77
47742;BME280;33504;52.066;6.096;2022-10-04T03:09:06;102116.29;;;14.71;48.75
47742;BME280;33504;52.066;6.096;2022-10-04T03:11:35;102122.40;;;14.70;48.60
47742;BME280;33504;52.066;6.096;2022-10-04T03:14:06;102116.05;;;14.45;48.60
47742;BME280;33504;52.066;6.096;2022-10-04T03:16:37;102119.12;;;14.66;48.47
47742;BME280;33504;52.066;6.096;2022-10-04T03:19:06;102117.46;;;14.63;48.49
47742;BME280;33504;52.066;6.096;2022-10-04T03:21:34;102108.66;;;14.39;48.48
47742;BME280;33504;52.066;6.096;2022-10-04T03:24:05;102100.64;;;14.36;48.56
47742;BME280;33504;52.066;6.096;2022-10-04T03:26:37;102099.53;;;14.34;48.59
47742;BME280;33504;52.066;6.096;2022-10-04T03:29:06;102090.51;;;14.26;48.66
47742;BME280;33504;52.066;6.096;2022-10-04T03:31:36;102084.70;;;14.41;48.92
47742;BME280;33504;52.066;6.096;2022-10-04T03:34:05;102089.35;;;14.42;48.99
47742;BME280;33504;52.066;6.096;2022-10-04T03:36:39;102087.14;;;14.40;48.86
47742;BME280;33504;52.066;6.096;2022-10-04T03:39:09;102085.87;;;14.41;48.92
47742;BME280;33504;52.066;6.096;2022-10-04T03:41:38;102081.43;;;14.43;48.95
47742;BME280;33504;52.066;6.096;2022-10-04T03:44:06;102079.81;;;14.06;49.12
47742;BME280;33504;52.066;6.096;2022-10-04T03:46:39;102078.08;;;14.31;49.04
47742;BME280;33504;52.066;6.096;2022-10-04T03:49:07;102075.24;;;14.34;48.80
47742;BME280;33504;52.066;6.096;2022-10-04T03:51:34;102070.36;;;14.32;48.67
47742;BME280;33504;52.066;6.096;2022-10-04T03:54:02;102070.31;;;14.30;48.53
47742;BME280;33504;52.066;6.096;2022-10-04T03:56:32;102071.19;;;14.26;48.55
47742;BME280;33504;52.066;6.096;2022-10-04T03:59:01;102072.77;;;14.50;48.46
47742;BME280;33504;52.066;6.096;2022-10-04T04:01:36;102069.10;;;14.19;48.42
47742;BME280;33504;52.066;6.096;2022-10-04T04:04:14;102067.42;;;14.43;48.31
47742;BME280;33504;52.066;6.096;2022-10-04T04:06:51;102064.15;;;14.06;48.19
47742;BME280;33504;52.066;6.096;2022-10-04T04:09:23;102060.59;;;14.22;48.38
47742;BME280;33504;52.066;6.096;2022-10-04T04:11:54;102054.86;;;13.90;48.00
47742;BME280;33504;52.066;6.096;2022-10-04T04:14:25;102052.19;;;14.10;47.56
47742;BME280;33504;52.066;6.096;2022-10-04T04:17:15;102054.84;;;13.79;47.45
47742;BME280;33504;52.066;6.096;2022-10-04T04:19:43;102060.61;;;13.96;47.31
47742;BME280;33504;52.066;6.096;2022-10-04T04:22:15;102069.40;;;13.67;47.09
47742;BME280;33504;52.066;6.096;2022-10-04T04:24:43;102072.34;;;13.89;46.94
47742;BME280;33504;52.066;6.096;2022-10-04T04:27:13;102071.78;;;13.86;47.04
47742;BME280;33504;52.066;6.096;2022-10-04T04:29:46;102063.88;;;13.76;47.37
47742;BME280;33504;52.066;6.096;2022-10-04T04:32:17;102055.23;;;13.74;47.43
47742;BME280;33504;52.066;6.096;2022-10-04T04:34:50;102053.55;;;13.69;47.58
47742;BME280;33504;52.066;6.096;2022-10-04T04:37:18;102049.83;;;13.62;47.78
47742;BME280;33504;52.066;6.096;2022-10-04T04:39:48;102052.07;;;13.58;47.93
47742;BME280;33504;52.066;6.096;2022-10-04T04:42:18;102053.28;;;13.75;47.97
47742;BME280;33504;52.066;6.096;2022-10-04T04:44:49;102054.63;;;13.47;48.04
47742;BME280;33504;52.066;6.096;2022-10-04T04:47:27;102053.68;;;13.41;48.12
47742;BME280;33504;52.066;6.096;2022-10-04T04:49:57;102051.70;;;13.37;48.04
47742;BME280;33504;52.066;6.096;2022-10-04T04:52:29;102050.35;;;13.33;48.07
47742;BME280;33504;52.066;6.096;2022-10-04T04:54:57;102047.27;;;13.27;48.01
47742;BME280;33504;52.066;6.096;2022-10-04T04:57:24;102041.75;;;13.21;48.21
47742;BME280;33504;52.066;6.096;2022-10-04T04:59:55;102039.01;;;13.40;48.15
47742;BME280;33504;52.066;6.096;2022-10-04T05:02:29;102039.67;;;13.39;48.10
47742;BME280;33504;52.066;6.096;2022-10-04T05:05:30;102031.55;;;14.04;48.38
47742;BME280;33504;52.066;6.096;2022-10-04T05:08:13;102031.00;;;13.27;48.09
47742;BME280;33504;52.066;6.096;2022-10-04T05:10:44;102025.78;;;12.89;48.82
47742;BME280;33504;52.066;6.096;2022-10-04T05:13:14;102019.88;;;12.92;48.46
47742;BME280;33504;52.066;6.096;2022-10-04T05:15:43;102021.53;;;13.14;48.45
47742;BME280;33504;52.066;6.096;2022-10-04T05:18:27;102027.93;;;12.93;48.36
47742;BME280;33504;52.066;6.096;2022-10-04T05:20:58;102025.20;;;13.14;48.49
47742;BME280;33504;52.066;6.096;2022-10-04T05:23:28;102033.59;;;12.94;48.31
47742;BME280;33504;52.066;6.096;2022-10-04T05:25:56;102034.61;;;13.15;48.26
47742;BME280;33504;52.066;6.096;2022-10-04T05:28:24;102035.92;;;13.16;48.20
47742;BME280;33504;52.066;6.096;2022-10-04T05:31:04;102034.58;;;13.16;48.03
47742;BME280;33504;52.066;6.096;2022-10-04T05:33:37;102034.92;;;13.40;48.02
47742;BME280;33504;52.066;6.096;2022-10-04T05:37:57;102042.30;;;13.66;48.73
47742;BME280;33504;52.066;6.096;2022-10-04T05:40:34;102040.27;;;12.80;49.40
47742;BME280;33504;52.066;6.096;2022-10-04T05:43:20;102033.98;;;12.86;49.88
47742;BME280;33504;52.066;6.096;2022-10-04T05:46:04;102028.23;;;13.09;49.97
47742;BME280;33504;52.066;6.096;2022-10-04T05:48:33;102033.24;;;12.98;50.35
47742;BME280;33504;52.066;6.096;2022-10-04T05:51:01;102035.54;;;12.82;50.25
47742;BME280;33504;52.066;6.096;2022-10-04T05:53:31;102038.42;;;12.60;50.31
47742;BME280;33504;52.066;6.096;2022-10-04T05:56:06;102037.25;;;12.81;50.36
47742;BME280;33504;52.066;6.096;2022-10-04T05:58:52;102036.10;;;13.00;50.57
47742;BME280;33504;52.066;6.096;2022-10-04T06:01:33;102033.78;;;12.90;50.72
47742;BME280;33504;52.066;6.096;2022-10-04T06:04:46;102037.02;;;13.43;50.55
47742;BME280;33504;52.066;6.096;2022-10-04T06:07:23;102038.80;;;12.95;50.81
47742;BME280;33504;52.066;6.096;2022-10-04T06:10:25;102041.70;;;13.03;50.56
47742;BME280;33504;52.066;6.096;2022-10-04T06:12:57;102036.60;;;12.77;50.50
47742;BME280;33504;52.066;6.096;2022-10-04T06:15:43;102041.18;;;12.65;50.76
47742;BME280;33504;52.066;6.096;2022-10-04T06:18:26;102044.28;;;13.08;50.47
47742;BME280;33504;52.066;6.096;2022-10-04T06:21:09;102050.28;;;12.94;50.80
47742;BME280;33504;52.066;6.096;2022-10-04T06:23:44;102056.56;;;12.79;50.55
47742;BME280;33504;52.066;6.096;2022-10-04T06:26:18;102060.42;;;13.04;50.57
47742;BME280;33504;52.066;6.096;2022-10-04T06:28:51;102062.95;;;13.09;50.54
47742;BME280;33504;52.066;6.096;2022-10-04T06:33:26;102056.98;;;13.78;50.45
47742;BME280;33504;52.066;6.096;2022-10-04T06:36:09;102051.92;;;13.17;50.46
47742;BME280;33504;52.066;6.096;2022-10-04T06:39:02;102057.76;;;12.85;50.58
47742;BME280;33504;52.066;6.096;2022-10-04T06:41:45;102061.03;;;13.27;50.22
47742;BME280;33504;52.066;6.096;2022-10-04T06:44:34;102057.32;;;12.90;49.88
47742;BME280;33504;52.066;6.096;2022-10-04T06:47:18;102055.43;;;13.07;50.60
47742;BME280;33504;52.066;6.096;2022-10-04T06:49:53;102053.17;;;13.14;50.56
47742;BME280;33504;52.066;6.096;2022-10-04T06:52:27;102052.39;;;12.54;51.25
47742;BME280;33504;52.066;6.096;2022-10-04T06:55:13;102053.83;;;12.74;51.30
47742;BME280;33504;52.066;6.096;2022-10-04T06:57:58;102055.48;;;12.44;51.36
47742;BME280;33504;52.066;6.096;2022-10-04T07:00:32;102054.48;;;12.62;51.41
47742;BME280;33504;52.066;6.096;2022-10-04T07:03:04;102055.90;;;12.60;51.44
47742;BME280;33504;52.066;6.096;2022-10-04T07:05:41;102053.91;;;12.56;51.33
47742;BME280;33504;52.066;6.096;2022-10-04T07:08:21;102050.37;;;12.32;51.24
47742;BME280;33504;52.066;6.096;2022-10-04T07:10:52;102051.32;;;12.57;51.38
47742;BME280;33504;52.066;6.096;2022-10-04T07:13:31;102048.36;;;12.75;50.80
47742;BME280;33504;52.066;6.096;2022-10-04T07:16:06;102049.26;;;12.48;51.46
47742;BME280;33504;52.066;6.096;2022-10-04T07:18:43;102045.47;;;12.64;51.13
47742;BME280;33504;52.066;6.096;2022-10-04T07:21:14;102045.46;;;12.61;51.17
47742;BME280;33504;52.066;6.096;2022-10-04T07:23:46;102044.06;;;12.62;51.27
47742;BME280;33504;52.066;6.096;2022-10-04T07:26:22;102038.10;;;12.76;50.94
47742;BME280;33504;52.066;6.096;2022-10-04T07:28:54;102032.81;;;12.57;51.21
47742;BME280;33504;52.066;6.096;2022-10-04T07:31:25;102027.87;;;12.74;50.66
47742;BME280;33504;52.066;6.096;2022-10-04T07:33:55;102027.39;;;13.56;50.34
47742;BME280;33504;52.066;6.096;2022-10-04T07:36:27;102030.58;;;13.62;49.50
47742;BME280;33504;52.066;6.096;2022-10-04T07:38:57;102033.34;;;13.57;49.39
47742;BME280;33504;52.066;6.096;2022-10-04T07:41:30;102029.17;;;14.33;48.14
47742;BME280;33504;52.066;6.096;2022-10-04T07:44:05;102031.83;;;14.80;47.01
47742;BME280;33504;52.066;6.096;2022-10-04T07:46:45;102020.73;;;15.69;45.61
47742;BME280;33504;52.066;6.096;2022-10-04T07:49:16;102019.97;;;16.01;43.81
47742;BME280;33504;52.066;6.096;2022-10-04T07:52:04;102021.23;;;15.48;44.51
47742;BME280;33504;52.066;6.096;2022-10-04T07:54:37;102024.52;;;15.75;44.18
47742;BME280;33504;52.066;6.096;2022-10-04T07:57:13;102025.69;;;15.43;44.85
47742;BME280;33504;52.066;6.096;2022-10-04T07:59:52;102028.17;;;15.39;44.53
47742;BME280;33504;52.066;6.096;2022-10-04T08:02:32;102030.44;;;16.07;43.31
47742;BME280;33504;52.066;6.096;2022-10-04T08:05:14;102034.85;;;16.73;43.13
47742;BME280;33504;52.066;6.096;2022-10-04T08:07:58;102024.04;;;16.81;42.24
47742;BME280;33504;52.066;6.096;2022-10-04T08:10:35;102020.19;;;16.30;42.66
47742;BME280;33504;52.066;6.096;2022-10-04T08:13:09;102023.15;;;16.32;42.90
47742;BME280;33504;52.066;6.096;2022-10-04T08:15:42;102029.32;;;16.45;42.88
47742;BME280;33504;52.066;6.096;2022-10-04T08:18:21;102026.32;;;16.50;42.40
47742;BME280;33504;52.066;6.096;2022-10-04T08:20:56;102019.93;;;17.11;41.68
47742;BME280;33504;52.066;6.096;2022-10-04T08:23:37;102017.36;;;17.40;41.69
47742;BME280;33504;52.066;6.096;2022-10-04T08:26:21;102027.26;;;17.21;41.70
47742;BME280;33504;52.066;6.096;2022-10-04T08:29:01;102032.37;;;17.66;41.36
47742;BME280;33504;52.066;6.096;2022-10-04T08:31:39;102038.71;;;18.13;40.46
47742;BME280;33504;52.066;6.096;2022-10-04T08:34:22;102036.56;;;17.71;40.27
47742;BME280;33504;52.066;6.096;2022-10-04T08:37:05;102037.29;;;17.74;39.63
47742;BME280;33504;52.066;6.096;2022-10-04T08:39:46;102042.32;;;18.47;39.26
47742;BME280;33504;52.066;6.096;2022-10-04T08:42:34;102044.05;;;18.68;39.22
47742;BME280;33504;52.066;6.096;2022-10-04T08:45:58;102043.96;;;19.59;38.62
47742;BME280;33504;52.066;6.096;2022-10-04T08:49:19;102036.42;;;20.50;38.14
47742;BME280;33504;52.066;6.096;2022-10-04T08:52:11;102033.81;;;19.20;37.71
47742;BME280;33504;52.066;6.096;2022-10-04T08:55:44;102024.06;;;20.14;36.98
47742;BME280;33504;52.066;6.096;2022-10-04T08:58:15;102025.63;;;19.64;37.47
47742;BME280;33504;52.066;6.096;2022-10-04T09:00:58;102024.08;;;19.48;37.52
47742;BME280;33504;52.066;6.096;2022-10-04T09:04:39;102015.03;;;20.04;36.93
47742;BME280;33504;52.066;6.096;2022-10-04T09:07:34;102019.54;;;20.63;36.05
47742;BME280;33504;52.066;6.096;2022-10-04T09:10:34;102017.43;;;21.22;34.97
47742;BME280;33504;52.066;6.096;2022-10-04T09:13:43;102018.71;;;21.81;35.04
47742;BME280;33504;52.066;6.096;2022-10-04T09:16:15;102024.01;;;20.82;34.57
47742;BME280;33504;52.066;6.096;2022-10-04T09:18:50;102021.39;;;21.65;34.08
47742;BME280;33504;52.066;6.096;2022-10-04T09:21:27;102014.69;;;21.19;34.89
47742;BME280;33504;52.066;6.096;2022-10-04T09:24:19;102017.92;;;20.91;34.39
47742;BME280;33504;52.066;6.096;2022-10-04T09:27:00;102012.78;;;21.72;34.06
47742;BME280;33504;52.066;6.096;2022-10-04T09:29:45;102010.11;;;22.24;33.54
47742;BME280;33504;52.066;6.096;2022-10-04T09:33:00;102006.66;;;22.36;32.96
47742;BME280;33504;52.066;6.096;2022-10-04T09:35:51;102008.63;;;22.51;32.32
47742;BME280;33504;52.066;6.096;2022-10-04T09:39:06;102003.11;;;23.24;32.57
47742;BME280;33504;52.066;6.096;2022-10-04T09:41:47;102003.46;;;22.72;32.39
47742;BME280;33504;52.066;6.096;2022-10-04T09:45:14;102003.23;;;23.58;32.01
47742;BME280;33504;52.066;6.096;2022-10-04T09:47:45;102004.04;;;22.64;31.99
47742;BME280;33504;52.066;6.096;2022-10-04T09:50:35;102003.96;;;23.28;31.85
47742;BME280;33504;52.066;6.096;2022-10-04T09:53:19;102002.64;;;22.96;31.20
47742;BME280;33504;52.066;6.096;2022-10-04T09:56:07;102002.39;;;22.99;31.73
47742;BME280;33504;52.066;6.096;2022-10-04T09:58:54;102005.88;;;23.22;30.98
47742;BME280;33504;52.066;6.096;2022-10-04T10:01:28;102000.53;;;23.46;31.32
47742;BME280;33504;52.066;6.096;2022-10-04T10:04:28;101998.29;;;23.18;30.37
47742;BME280;33504;52.066;6.096;2022-10-04T10:07:17;102002.79;;;23.07;31.08
47742;BME280;33504;52.066;6.096;2022-10-04T10:09:55;101998.77;;;23.63;31.41
47742;BME280;33504;52.066;6.096;2022-10-04T10:12:39;101992.21;;;23.10;30.87
47742;BME280;33504;52.066;6.096;2022-10-04T10:15:17;101997.82;;;23.16;30.23
47742;BME280;33504;52.066;6.096;2022-10-04T10:17:54;101994.13;;;23.69;30.19
47742;BME280;33504;52.066;6.096;2022-10-04T10:20:39;101986.60;;;24.40;29.84
47742;BME280;33504;52.066;6.096;2022-10-04T10:23:24;101984.45;;;24.62;29.49
47742;BME280;33504;52.066;6.096;2022-10-04T10:26:08;101981.39;;;24.98;28.21
47742;BME280;33504;52.066;6.096;2022-10-04T10:28:50;101976.26;;;25.09;28.55
47742;BME280;33504;52.066;6.096;2022-10-04T10:31:38;101971.03;;;24.84;28.09
47742;BME280;33504;52.066;6.096;2022-10-04T10:34:44;101972.25;;;24.33;28.36
47742;BME280;33504;52.066;6.096;2022-10-04T10:37:15;101969.62;;;24.74;27.94
47742;BME280;33504;52.066;6.096;2022-10-04T10:40:00;101967.25;;;24.78;28.12
47742;BME280;33504;52.066;6.096;2022-10-04T10:45:07;101961.04;;;24.80;28.70
47742;BME280;33504;52.066;6.096;2022-10-04T10:47:46;101966.54;;;24.42;28.74
47742;BME280;33504;52.066;6.096;2022-10-04T10:50:32;101978.31;;;24.18;28.37
47742;BME280;33504;52.066;6.096;2022-10-04T10:53:59;101979.53;;;25.41;27.99
47742;BME280;33504;52.066;6.096;2022-10-04T10:56:44;101978.36;;;24.60;27.75
47742;BME280;33504;52.066;6.096;2022-10-04T11:00:03;101980.43;;;25.08;28.00
47742;BME280;33504;52.066;6.096;2022-10-04T11:03:56;101986.97;;;25.09;28.46
47742;BME280;33504;52.066;6.096;2022-10-04T11:06:54;101981.33;;;24.57;28.24
47742;BME280;33504;52.066;6.096;2022-10-04T11:09:30;101972.80;;;24.36;28.14
47742;BME280;33504;52.066;6.096;2022-10-04T11:12:17;101976.90;;;24.70;27.92
47742;BME280;33504;52.066;6.096;2022-10-04T11:15:29;101967.41;;;24.62;28.15
47742;BME280;33504;52.066;6.096;2022-10-04T11:20:14;101961.82;;;26.14;27.57
47742;BME280;33504;52.066;6.096;2022-10-04T11:23:19;101955.36;;;24.71;27.61
47742;BME280;33504;52.066;6.096;2022-10-04T11:26:08;101948.57;;;24.89;28.24
47742;BME280;33504;52.066;6.096;2022-10-04T11:28:47;101941.80;;;24.73;27.65
47742;BME280;33504;52.066;6.096;2022-10-04T11:31:56;101937.97;;;24.21;27.88
47742;BME280;33504;52.066;6.096;2022-10-04T11:35:50;101936.71;;;25.54;27.80
47742;BME280;33504;52.066;6.096;2022-10-04T11:38:26;101933.78;;;24.33;27.72
47742;BME280;33504;52.066;6.096;2022-10-04T11:41:10;101933.93;;;23.55;28.69
47742;BME280;33504;52.066;6.096;2022-10-04T11:44:42;101932.23;;;23.86;29.36
47742;BME280;33504;52.066;6.096;2022-10-04T11:47:23;101940.25;;;22.84;30.10
47742;BME280;33504;52.066;6.096;2022-10-04T11:50:08;101927.22;;;22.54;30.58
47742;BME280;33504;52.066;6.096;2022-10-04T11:52:59;101918.07;;;22.32;31.27
47742;BME280;33504;52.066;6.096;2022-10-04T11:55:48;101909.47;;;21.83;31.45
47742;BME280;33504;52.066;6.096;2022-10-04T11:58:27;101899.19;;;21.77;32.15
47742;BME280;33504;52.066;6.096;2022-10-04T12:01:20;101901.25;;;21.61;31.26
47742;BME280;33504;52.066;6.096;2022-10-04T12:04:07;101909.75;;;21.21;32.39
47742;BME280;33504;52.066;6.096;2022-10-04T12:06:51;101910.28;;;21.01;32.58
47742;BME280;33504;52.066;6.096;2022-10-04T12:09:32;101903.07;;;20.73;32.82
47742;BME280;33504;52.066;6.096;2022-10-04T12:12:24;101911.36;;;20.26;33.57
47742;BME280;33504;52.066;6.096;2022-10-04T12:15:36;101905.78;;;21.16;33.41
47742;BME280;33504;52.066;6.096;2022-10-04T12:18:19;101895.10;;;20.92;33.06
47742;BME280;33504;52.066;6.096;2022-10-04T12:21:13;101893.89;;;20.75;32.38
47742;BME280;33504;52.066;6.096;2022-10-04T12:23:56;101900.72;;;21.06;31.80
47742;BME280;33504;52.066;6.096;2022-10-04T12:26:59;101894.35;;;21.12;31.92
47742;BME280;33504;52.066;6.096;2022-10-04T12:30:03;101882.83;;;20.72;32.40
47742;BME280;33504;52.066;6.096;2022-10-04T12:32:47;101879.65;;;21.12;32.51
47742;BME280;33504;52.066;6.096;2022-10-04T12:35:23;101878.62;;;21.24;31.63
47742;BME280;33504;52.066;6.096;2022-10-04T12:38:21;101872.27;;;21.34;32.35
47742;BME280;33504;52.066;6.096;2022-10-04T12:41:01;101870.85;;;21.50;31.80
47742;BME280;33504;52.066;6.096;2022-10-04T12:43:38;101860.45;;;21.24;32.66
47742;BME280;33504;52.066;6.096;2022-10-04T12:46:15;101857.39;;;21.26;32.51
47742;BME280;33504;52.066;6.096;2022-10-04T12:48:59;101860.38;;;20.96;32.74
47742;BME280;33504;52.066;6.096;2022-10-04T12:51:36;101854.79;;;21.56;31.81
47742;BME280;33504;52.066;6.096;2022-10-04T12:54:19;101853.42;;;21.82;31.80
47742;BME280;33504;52.066;6.096;2022-10-04T12:56:59;101844.81;;;21.49;32.42
47742;BME280;33504;52.066;6.096;2022-10-04T12:59:39;101851.23;;;21.91;31.59
47742;BME280;33504;52.066;6.096;2022-10-04T13:02:22;101840.75;;;21.61;31.38
47742;BME280;33504;52.066;6.096;2022-10-04T13:04:57;101843.24;;;21.78;31.19
47742;BME280;33504;52.066;6.096;2022-10-04T13:08:06;101843.17;;;22.61;31.60
47742;BME280;33504;52.066;6.096;2022-10-04T13:10:46;101836.81;;;21.47;31.68
47742;BME280;33504;52.066;6.096;2022-10-04T13:14:01;101833.23;;;21.70;31.80
47742;BME280;33504;52.066;6.096;2022-10-04T13:16:41;101837.51;;;21.37;31.83
47742;BME280;33504;52.066;6.096;2022-10-04T13:19:18;101839.58;;;21.83;31.70
47742;BME280;33504;52.066;6.096;2022-10-04T13:22:05;101835.72;;;22.80;31.00
47742;BME280;33504;52.066;6.096;2022-10-04T13:24:43;101830.83;;;23.82;29.02
47742;BME280;33504;52.066;6.096;2022-10-04T13:27:18;101830.96;;;24.13;28.35
47742;BME280;33504;52.066;6.096;2022-10-04T13:29:53;101827.25;;;23.76;27.80
47742;BME280;33504;52.066;6.096;2022-10-04T13:32:27;101827.93;;;24.82;27.34
47742;BME280;33504;52.066;6.096;2022-10-04T13:35:02;101827.80;;;25.03;26.24
47742;BME280;33504;52.066;6.096;2022-10-04T13:37:36;101826.09;;;25.87;25.64
47742;BME280;33504;52.066;6.096;2022-10-04T13:40:27;101822.07;;;26.27;24.70
47742;BME280;33504;52.066;6.096;2022-10-04T13:43:09;101819.94;;;26.05;25.24
47742;BME280;33504;52.066;6.096;2022-10-04T13:45:52;101822.66;;;26.48;24.68
47742;BME280;33504;52.066;6.096;2022-10-04T13:48:27;101823.88;;;26.15;24.21
47742;BME280;33504;52.066;6.096;2022-10-04T13:51:03;101819.37;;;25.48;25.02
47742;BME280;33504;52.066;6.096;2022-10-04T13:53:42;101816.10;;;25.58;25.04
47742;BME280;33504;52.066;6.096;2022-10-04T13:56:27;101810.11;;;24.82;25.22
47742;BME280;33504;52.066;6.096;2022-10-04T13:59:04;101805.84;;;23.63;26.44
47742;BME280;33504;52.066;6.096;2022-10-04T14:03:11;101788.99;;;24.92;27.16
47742;BME280;33504;52.066;6.096;2022-10-04T14:07:10;101787.84;;;24.65;27.22
47742;BME280;33504;52.066;6.096;2022-10-04T14:10:16;101781.96;;;22.43;27.93